sensor_id;sensor_type;location;lat;lon;timestamp;P1;durP1;ratioP1;P2;durP2;ratioP2
13891;SDS011;7016;48.172;8.058;2023-02-04T00:00:59;2.95;;;1.50;;
13891;SDS011;7016;48.172;8.058;2023-02-04T00:03:24;3.40;;;1.60;;
13891;SDS011;7016;48.172;8.058;2023-02-04T00:05:50;1.92;;;1.45;;
13891;SDS011;7016;48.172;8.058;2023-02-04T00:08:16;1.90;;;1.30;;
13891;SDS011;7016;48.172;8.058;2023-02-04T00:10:41;1.52;;;1.17;;
13891;SDS011;7016;48.172;8.058;2023-02-04T00:13:07;1.77;;;1.20;;
13891;SDS011;7016;48.172;8.058;2023-02-04T00:15:33;1.67;;;1.20;;
13891;SDS011;7016;48.172;8.058;2023-02-04T00:17:58;1.95;;;1.10;;
13891;SDS011;7016;48.172;8.058;2023-02-04T00:20:24;1.50;;;1.00;;
13891;SDS011;7016;48.172;8.058;2023-02-04T00:22:50;2.10;;;1.30;;
13891;SDS011;7016;48.172;8.058;2023-02-04T00:25:16;2.88;;;1.70;;
13891;SDS011;7016;48.172;8.058;2023-02-04T00:27:42;2.38;;;1.55;;
13891;SDS011;7016;48.172;8.058;2023-02-04T00:30:08;2.13;;;1.50;;
13891;SDS011;7016;48.172;8.058;2023-02-04T00:32:34;2.45;;;1.50;;
13891;SDS011;7016;48.172;8.058;2023-02-04T00:35:00;2.60;;;1.42;;
13891;SDS011;7016;48.172;8.058;2023-02-04T00:37:28;2.13;;;1.75;;
13891;SDS011;7016;48.172;8.058;2023-02-04T00:39:55;1.60;;;1.48;;
13891;SDS011;7016;48.172;8.058;2023-02-04T00:42:20;3.70;;;1.52;;
13891;SDS011;7016;48.172;8.058;2023-02-04T00:44:47;1.58;;;1.48;;
13891;SDS011;7016;48.172;8.058;2023-02-04T00:47:12;5.93;;;2.03;;
13891;SDS011;7016;48.172;8.058;2023-02-04T00:49:38;2.25;;;1.75;;
13891;SDS011;7016;48.172;8.058;2023-02-04T00:52:04;3.75;;;1.98;;
13891;SDS011;7016;48.172;8.058;2023-02-04T00:54:30;2.80;;;1.95;;
13891;SDS011;7016;48.172;8.058;2023-02-04T00:56:55;3.20;;;1.80;;
13891;SDS011;7016;48.172;8.058;2023-02-04T00:59:21;2.00;;;1.80;;
13891;SDS011;7016;48.172;8.058;2023-02-04T01:01:47;2.25;;;1.80;;
13891;SDS011;7016;48.172;8.058;2023-02-04T01:04:12;5.63;;;2.45;;
13891;SDS011;7016;48.172;8.058;2023-02-04T01:06:39;2.70;;;1.90;;
13891;SDS011;7016;48.172;8.058;2023-02-04T01:09:05;3.58;;;2.30;;
13891;SDS011;7016;48.172;8.058;2023-02-04T01:11:31;2.90;;;1.88;;
13891;SDS011;7016;48.172;8.058;2023-02-04T01:13:56;2.80;;;1.98;;
13891;SDS011;7016;48.172;8.058;2023-02-04T01:16:22;3.42;;;1.98;;
13891;SDS011;7016;48.172;8.058;2023-02-04T01:18:48;5.18;;;2.10;;
13891;SDS011;7016;48.172;8.058;2023-02-04T01:21:14;4.45;;;2.60;;
13891;SDS011;7016;48.172;8.058;2023-02-04T01:23:40;3.60;;;2.60;;
13891;SDS011;7016;48.172;8.058;2023-02-04T01:26:05;4.45;;;2.38;;
13891;SDS011;7016;48.172;8.058;2023-02-04T01:28:31;3.63;;;2.60;;
13891;SDS011;7016;48.172;8.058;2023-02-04T01:30:57;3.60;;;2.58;;
13891;SDS011;7016;48.172;8.058;2023-02-04T01:33:22;4.68;;;2.78;;
13891;SDS011;7016;48.172;8.058;2023-02-04T01:35:48;3.22;;;2.65;;
13891;SDS011;7016;48.172;8.058;2023-02-04T01:38:14;3.97;;;2.85;;
13891;SDS011;7016;48.172;8.058;2023-02-04T01:40:40;3.42;;;2.53;;
13891;SDS011;7016;48.172;8.058;2023-02-04T01:43:06;3.80;;;3.00;;
13891;SDS011;7016;48.172;8.058;2023-02-04T01:45:32;4.88;;;2.60;;
13891;SDS011;7016;48.172;8.058;2023-02-04T01:48:00;3.38;;;2.22;;
13891;SDS011;7016;48.172;8.058;2023-02-04T01:50:30;3.25;;;2.45;;
13891;SDS011;7016;48.172;8.058;2023-02-04T01:52:56;4.10;;;2.42;;
13891;SDS011;7016;48.172;8.058;2023-02-04T01:55:23;4.43;;;2.95;;
13891;SDS011;7016;48.172;8.058;2023-02-04T01:57:52;4.03;;;2.60;;
13891;SDS011;7016;48.172;8.058;2023-02-04T02:00:21;4.30;;;3.00;;
13891;SDS011;7016;48.172;8.058;2023-02-04T02:02:49;3.13;;;2.53;;
13891;SDS011;7016;48.172;8.058;2023-02-04T02:05:17;3.88;;;2.55;;
13891;SDS011;7016;48.172;8.058;2023-02-04T02:07:46;3.47;;;2.60;;
13891;SDS011;7016;48.172;8.058;2023-02-04T02:10:13;5.00;;;2.80;;
13891;SDS011;7016;48.172;8.058;2023-02-04T02:12:40;4.75;;;3.00;;
13891;SDS011;7016;48.172;8.058;2023-02-04T02:15:07;5.18;;;2.90;;
13891;SDS011;7016;48.172;8.058;2023-02-04T02:17:34;4.88;;;2.88;;
13891;SDS011;7016;48.172;8.058;2023-02-04T02:20:00;3.80;;;2.95;;
13891;SDS011;7016;48.172;8.058;2023-02-04T02:25:15;3.22;;;2.45;;
13891;SDS011;7016;48.172;8.058;2023-02-04T02:27:41;3.58;;;3.00;;
13891;SDS011;7016;48.172;8.058;2023-02-04T02:30:08;4.70;;;3.67;;
13891;SDS011;7016;48.172;8.058;2023-02-04T02:32:39;6.10;;;3.90;;
13891;SDS011;7016;48.172;8.058;2023-02-04T02:35:05;3.75;;;3.25;;
13891;SDS011;7016;48.172;8.058;2023-02-04T02:37:31;5.13;;;3.83;;
13891;SDS011;7016;48.172;8.058;2023-02-04T02:39:58;4.93;;;3.60;;
13891;SDS011;7016;48.172;8.058;2023-02-04T02:42:23;5.47;;;4.10;;
13891;SDS011;7016;48.172;8.058;2023-02-04T02:44:50;4.88;;;4.00;;
13891;SDS011;7016;48.172;8.058;2023-02-04T02:47:16;7.90;;;4.78;;
13891;SDS011;7016;48.172;8.058;2023-02-04T02:49:45;6.70;;;4.88;;
13891;SDS011;7016;48.172;8.058;2023-02-04T02:52:13;7.93;;;4.72;;
13891;SDS011;7016;48.172;8.058;2023-02-04T02:54:39;6.32;;;4.43;;
13891;SDS011;7016;48.172;8.058;2023-02-04T02:57:12;6.10;;;5.13;;
13891;SDS011;7016;48.172;8.058;2023-02-04T02:59:44;8.90;;;5.43;;
13891;SDS011;7016;48.172;8.058;2023-02-04T03:02:10;8.32;;;5.32;;
13891;SDS011;7016;48.172;8.058;2023-02-04T03:04:42;9.52;;;5.50;;
13891;SDS011;7016;48.172;8.058;2023-02-04T03:07:12;7.90;;;6.10;;
13891;SDS011;7016;48.172;8.058;2023-02-04T03:09:38;6.25;;;5.10;;
13891;SDS011;7016;48.172;8.058;2023-02-04T03:12:04;8.60;;;5.40;;
13891;SDS011;7016;48.172;8.058;2023-02-04T03:14:30;5.82;;;4.38;;
13891;SDS011;7016;48.172;8.058;2023-02-04T03:16:57;5.45;;;4.20;;
13891;SDS011;7016;48.172;8.058;2023-02-04T03:19:25;4.32;;;3.92;;
13891;SDS011;7016;48.172;8.058;2023-02-04T03:21:52;6.80;;;4.97;;
13891;SDS011;7016;48.172;8.058;2023-02-04T03:24:20;8.13;;;4.40;;
13891;SDS011;7016;48.172;8.058;2023-02-04T03:26:45;5.47;;;3.97;;
13891;SDS011;7016;48.172;8.058;2023-02-04T03:29:12;4.72;;;3.60;;
13891;SDS011;7016;48.172;8.058;2023-02-04T03:31:37;4.90;;;3.65;;
13891;SDS011;7016;48.172;8.058;2023-02-04T03:34:03;4.25;;;3.35;;
13891;SDS011;7016;48.172;8.058;2023-02-04T03:36:29;5.95;;;3.35;;
13891;SDS011;7016;48.172;8.058;2023-02-04T03:38:55;4.38;;;3.58;;
13891;SDS011;7016;48.172;8.058;2023-02-04T03:41:21;5.63;;;3.25;;
13891;SDS011;7016;48.172;8.058;2023-02-04T03:43:47;5.97;;;4.22;;
13891;SDS011;7016;48.172;8.058;2023-02-04T03:46:12;3.85;;;2.92;;
13891;SDS011;7016;48.172;8.058;2023-02-04T03:48:38;7.70;;;4.18;;
13891;SDS011;7016;48.172;8.058;2023-02-04T03:51:04;4.70;;;3.38;;
13891;SDS011;7016;48.172;8.058;2023-02-04T03:53:30;4.57;;;3.80;;
13891;SDS011;7016;48.172;8.058;2023-02-04T03:55:56;4.28;;;3.70;;
13891;SDS011;7016;48.172;8.058;2023-02-04T03:58:22;4.30;;;3.80;;
13891;SDS011;7016;48.172;8.058;2023-02-04T04:00:48;6.93;;;4.80;;
13891;SDS011;7016;48.172;8.058;2023-02-04T04:03:14;5.40;;;4.05;;
13891;SDS011;7016;48.172;8.058;2023-02-04T04:05:39;6.82;;;4.55;;
13891;SDS011;7016;48.172;8.058;2023-02-04T04:08:05;4.90;;;4.40;;
13891;SDS011;7016;48.172;8.058;2023-02-04T04:10:31;10.07;;;5.45;;
13891;SDS011;7016;48.172;8.058;2023-02-04T04:13:00;8.38;;;6.10;;
13891;SDS011;7016;48.172;8.058;2023-02-04T04:17:53;8.55;;;5.40;;
13891;SDS011;7016;48.172;8.058;2023-02-04T04:20:18;6.53;;;5.45;;
13891;SDS011;7016;48.172;8.058;2023-02-04T04:22:44;7.13;;;5.75;;
13891;SDS011;7016;48.172;8.058;2023-02-04T04:25:10;8.80;;;5.97;;
13891;SDS011;7016;48.172;8.058;2023-02-04T04:27:35;8.57;;;5.72;;
13891;SDS011;7016;48.172;8.058;2023-02-04T04:30:02;8.38;;;5.97;;
13891;SDS011;7016;48.172;8.058;2023-02-04T04:32:28;10.82;;;5.90;;
13891;SDS011;7016;48.172;8.058;2023-02-04T04:34:54;6.78;;;5.22;;
13891;SDS011;7016;48.172;8.058;2023-02-04T04:37:19;6.05;;;4.95;;
13891;SDS011;7016;48.172;8.058;2023-02-04T04:39:45;8.20;;;5.20;;
13891;SDS011;7016;48.172;8.058;2023-02-04T04:42:11;7.72;;;5.40;;
13891;SDS011;7016;48.172;8.058;2023-02-04T04:44:36;6.68;;;5.10;;
13891;SDS011;7016;48.172;8.058;2023-02-04T04:47:02;8.23;;;6.35;;
13891;SDS011;7016;48.172;8.058;2023-02-04T04:49:28;9.45;;;6.40;;
13891;SDS011;7016;48.172;8.058;2023-02-04T04:51:53;7.50;;;6.05;;
13891;SDS011;7016;48.172;8.058;2023-02-04T04:54:19;8.68;;;6.43;;
13891;SDS011;7016;48.172;8.058;2023-02-04T04:56:45;7.40;;;5.88;;
13891;SDS011;7016;48.172;8.058;2023-02-04T04:59:10;11.52;;;7.35;;
13891;SDS011;7016;48.172;8.058;2023-02-04T05:01:36;6.07;;;5.07;;
13891;SDS011;7016;48.172;8.058;2023-02-04T05:04:02;7.13;;;5.07;;
13891;SDS011;7016;48.172;8.058;2023-02-04T05:06:28;6.38;;;5.20;;
13891;SDS011;7016;48.172;8.058;2023-02-04T05:08:54;5.88;;;4.38;;
13891;SDS011;7016;48.172;8.058;2023-02-04T05:11:19;5.47;;;4.25;;
13891;SDS011;7016;48.172;8.058;2023-02-04T05:13:45;6.25;;;4.05;;
13891;SDS011;7016;48.172;8.058;2023-02-04T05:16:11;5.05;;;3.88;;
13891;SDS011;7016;48.172;8.058;2023-02-04T05:18:38;6.00;;;4.18;;
13891;SDS011;7016;48.172;8.058;2023-02-04T05:21:04;6.82;;;3.13;;
13891;SDS011;7016;48.172;8.058;2023-02-04T05:23:30;5.03;;;3.15;;
13891;SDS011;7016;48.172;8.058;2023-02-04T05:25:56;3.47;;;2.90;;
13891;SDS011;7016;48.172;8.058;2023-02-04T05:28:21;2.63;;;2.42;;
13891;SDS011;7016;48.172;8.058;2023-02-04T05:30:47;3.45;;;2.80;;
13891;SDS011;7016;48.172;8.058;2023-02-04T05:33:13;6.88;;;3.42;;
13891;SDS011;7016;48.172;8.058;2023-02-04T05:35:38;3.63;;;3.00;;
13891;SDS011;7016;48.172;8.058;2023-02-04T05:38:04;4.93;;;3.45;;
13891;SDS011;7016;48.172;8.058;2023-02-04T05:40:30;4.55;;;3.45;;
13891;SDS011;7016;48.172;8.058;2023-02-04T05:42:55;4.00;;;2.97;;
13891;SDS011;7016;48.172;8.058;2023-02-04T05:45:21;3.78;;;2.88;;
13891;SDS011;7016;48.172;8.058;2023-02-04T05:47:47;4.57;;;3.10;;
13891;SDS011;7016;48.172;8.058;2023-02-04T05:50:13;4.30;;;2.92;;
13891;SDS011;7016;48.172;8.058;2023-02-04T05:52:39;3.50;;;2.58;;
13891;SDS011;7016;48.172;8.058;2023-02-04T05:55:05;4.88;;;2.78;;
13891;SDS011;7016;48.172;8.058;2023-02-04T05:57:31;4.00;;;2.70;;
13891;SDS011;7016;48.172;8.058;2023-02-04T05:59:57;3.05;;;2.60;;
13891;SDS011;7016;48.172;8.058;2023-02-04T06:02:23;3.15;;;2.60;;
13891;SDS011;7016;48.172;8.058;2023-02-04T06:04:48;2.60;;;2.40;;
13891;SDS011;7016;48.172;8.058;2023-02-04T06:07:14;2.13;;;1.92;;
13891;SDS011;7016;48.172;8.058;2023-02-04T06:09:40;2.95;;;2.20;;
13891;SDS011;7016;48.172;8.058;2023-02-04T06:12:06;2.25;;;1.80;;
13891;SDS011;7016;48.172;8.058;2023-02-04T06:14:32;2.47;;;1.88;;
13891;SDS011;7016;48.172;8.058;2023-02-04T06:16:57;2.33;;;1.88;;
13891;SDS011;7016;48.172;8.058;2023-02-04T06:19:24;2.10;;;1.80;;
13891;SDS011;7016;48.172;8.058;2023-02-04T06:21:49;2.10;;;1.90;;
13891;SDS011;7016;48.172;8.058;2023-02-04T06:24:15;3.35;;;1.65;;
13891;SDS011;7016;48.172;8.058;2023-02-04T06:26:41;2.00;;;1.80;;
13891;SDS011;7016;48.172;8.058;2023-02-04T06:29:07;2.95;;;2.65;;
13891;SDS011;7016;48.172;8.058;2023-02-04T06:31:33;4.68;;;3.47;;
13891;SDS011;7016;48.172;8.058;2023-02-04T06:33:58;6.00;;;4.65;;
13891;SDS011;7016;48.172;8.058;2023-02-04T06:36:24;6.03;;;4.22;;
13891;SDS011;7016;48.172;8.058;2023-02-04T06:38:50;13.60;;;8.43;;
13891;SDS011;7016;48.172;8.058;2023-02-04T06:41:15;8.43;;;5.22;;
13891;SDS011;7016;48.172;8.058;2023-02-04T06:43:41;11.05;;;7.03;;
13891;SDS011;7016;48.172;8.058;2023-02-04T06:46:07;7.10;;;5.00;;
13891;SDS011;7016;48.172;8.058;2023-02-04T06:48:32;5.32;;;3.58;;
13891;SDS011;7016;48.172;8.058;2023-02-04T06:50:58;4.88;;;3.85;;
13891;SDS011;7016;48.172;8.058;2023-02-04T06:53:25;11.07;;;4.00;;
13891;SDS011;7016;48.172;8.058;2023-02-04T06:55:50;5.05;;;3.40;;
13891;SDS011;7016;48.172;8.058;2023-02-04T06:58:17;3.35;;;2.53;;
13891;SDS011;7016;48.172;8.058;2023-02-04T07:00:42;6.78;;;4.35;;
13891;SDS011;7016;48.172;8.058;2023-02-04T07:03:08;6.50;;;5.07;;
13891;SDS011;7016;48.172;8.058;2023-02-04T07:05:34;7.50;;;5.07;;
13891;SDS011;7016;48.172;8.058;2023-02-04T07:08:00;6.07;;;4.90;;
13891;SDS011;7016;48.172;8.058;2023-02-04T07:10:25;6.47;;;5.00;;
13891;SDS011;7016;48.172;8.058;2023-02-04T07:12:51;5.82;;;4.43;;
13891;SDS011;7016;48.172;8.058;2023-02-04T07:15:17;6.15;;;5.00;;
13891;SDS011;7016;48.172;8.058;2023-02-04T07:17:43;6.90;;;5.05;;
13891;SDS011;7016;48.172;8.058;2023-02-04T07:20:09;6.60;;;4.78;;
13891;SDS011;7016;48.172;8.058;2023-02-04T07:22:36;20.25;;;12.88;;
13891;SDS011;7016;48.172;8.058;2023-02-04T07:25:02;17.35;;;10.18;;
13891;SDS011;7016;48.172;8.058;2023-02-04T07:27:27;13.93;;;8.80;;
13891;SDS011;7016;48.172;8.058;2023-02-04T07:29:53;12.80;;;7.90;;
13891;SDS011;7016;48.172;8.058;2023-02-04T07:32:19;14.35;;;7.82;;
13891;SDS011;7016;48.172;8.058;2023-02-04T07:34:44;12.48;;;7.50;;
13891;SDS011;7016;48.172;8.058;2023-02-04T07:37:12;10.20;;;6.82;;
13891;SDS011;7016;48.172;8.058;2023-02-04T07:39:37;7.30;;;5.70;;
13891;SDS011;7016;48.172;8.058;2023-02-04T07:42:03;6.22;;;4.90;;
13891;SDS011;7016;48.172;8.058;2023-02-04T07:44:30;5.80;;;4.72;;
13891;SDS011;7016;48.172;8.058;2023-02-04T07:46:56;6.60;;;4.95;;
13891;SDS011;7016;48.172;8.058;2023-02-04T07:49:21;9.05;;;5.25;;
13891;SDS011;7016;48.172;8.058;2023-02-04T07:51:48;13.02;;;9.27;;
13891;SDS011;7016;48.172;8.058;2023-02-04T07:54:15;7.38;;;5.18;;
13891;SDS011;7016;48.172;8.058;2023-02-04T07:56:40;7.18;;;4.95;;
13891;SDS011;7016;48.172;8.058;2023-02-04T07:59:06;6.68;;;5.30;;
13891;SDS011;7016;48.172;8.058;2023-02-04T08:01:32;7.93;;;5.20;;
13891;SDS011;7016;48.172;8.058;2023-02-04T08:03:58;5.88;;;4.55;;
13891;SDS011;7016;48.172;8.058;2023-02-04T08:06:23;6.47;;;4.60;;
13891;SDS011;7016;48.172;8.058;2023-02-04T08:08:49;6.70;;;4.80;;
13891;SDS011;7016;48.172;8.058;2023-02-04T08:11:15;7.38;;;5.07;;
13891;SDS011;7016;48.172;8.058;2023-02-04T08:13:41;6.90;;;5.57;;
13891;SDS011;7016;48.172;8.058;2023-02-04T08:16:06;6.45;;;4.80;;
13891;SDS011;7016;48.172;8.058;2023-02-04T08:18:32;8.63;;;6.40;;
13891;SDS011;7016;48.172;8.058;2023-02-04T08:20:58;6.80;;;5.15;;
13891;SDS011;7016;48.172;8.058;2023-02-04T08:23:25;5.60;;;4.80;;
13891;SDS011;7016;48.172;8.058;2023-02-04T08:25:51;5.57;;;5.00;;
13891;SDS011;7016;48.172;8.058;2023-02-04T08:28:16;5.75;;;5.00;;
13891;SDS011;7016;48.172;8.058;2023-02-04T08:30:42;5.95;;;4.72;;
13891;SDS011;7016;48.172;8.058;2023-02-04T08:33:08;6.13;;;4.93;;
13891;SDS011;7016;48.172;8.058;2023-02-04T08:35:34;6.70;;;5.55;;
13891;SDS011;7016;48.172;8.058;2023-02-04T08:38:00;5.20;;;4.25;;
13891;SDS011;7016;48.172;8.058;2023-02-04T08:40:26;6.13;;;4.70;;
13891;SDS011;7016;48.172;8.058;2023-02-04T08:42:52;9.65;;;6.05;;
13891;SDS011;7016;48.172;8.058;2023-02-04T08:45:17;8.68;;;6.35;;
13891;SDS011;7016;48.172;8.058;2023-02-04T08:47:43;8.25;;;5.72;;
13891;SDS011;7016;48.172;8.058;2023-02-04T08:50:09;11.80;;;8.02;;
13891;SDS011;7016;48.172;8.058;2023-02-04T08:52:35;11.82;;;6.80;;
13891;SDS011;7016;48.172;8.058;2023-02-04T08:55:01;11.13;;;7.45;;
13891;SDS011;7016;48.172;8.058;2023-02-04T08:57:27;14.38;;;9.63;;
13891;SDS011;7016;48.172;8.058;2023-02-04T08:59:52;12.73;;;7.82;;
13891;SDS011;7016;48.172;8.058;2023-02-04T09:02:20;18.95;;;14.15;;
13891;SDS011;7016;48.172;8.058;2023-02-04T09:04:46;30.70;;;21.92;;
13891;SDS011;7016;48.172;8.058;2023-02-04T09:07:12;13.25;;;8.38;;
13891;SDS011;7016;48.172;8.058;2023-02-04T09:09:38;11.38;;;7.43;;
13891;SDS011;7016;48.172;8.058;2023-02-04T09:12:03;8.25;;;5.40;;
13891;SDS011;7016;48.172;8.058;2023-02-04T09:14:29;3.40;;;2.22;;
13891;SDS011;7016;48.172;8.058;2023-02-04T09:16:55;4.60;;;2.92;;
13891;SDS011;7016;48.172;8.058;2023-02-04T09:19:21;6.32;;;3.67;;
13891;SDS011;7016;48.172;8.058;2023-02-04T09:21:50;4.07;;;3.40;;
13891;SDS011;7016;48.172;8.058;2023-02-04T09:24:16;5.25;;;3.70;;
13891;SDS011;7016;48.172;8.058;2023-02-04T09:26:42;6.80;;;5.25;;
13891;SDS011;7016;48.172;8.058;2023-02-04T09:29:08;7.45;;;5.03;;
13891;SDS011;7016;48.172;8.058;2023-02-04T09:31:34;5.32;;;4.47;;
13891;SDS011;7016;48.172;8.058;2023-02-04T09:33:59;4.97;;;2.83;;
13891;SDS011;7016;48.172;8.058;2023-02-04T09:36:25;3.92;;;2.53;;
13891;SDS011;7016;48.172;8.058;2023-02-04T09:38:54;5.18;;;3.45;;
13891;SDS011;7016;48.172;8.058;2023-02-04T09:41:20;5.40;;;4.25;;
13891;SDS011;7016;48.172;8.058;2023-02-04T09:43:46;6.05;;;5.22;;
13891;SDS011;7016;48.172;8.058;2023-02-04T09:46:23;3.88;;;2.83;;
13891;SDS011;7016;48.172;8.058;2023-02-04T09:48:52;4.90;;;2.42;;
13891;SDS011;7016;48.172;8.058;2023-02-04T09:51:22;5.10;;;2.50;;
13891;SDS011;7016;48.172;8.058;2023-02-04T09:53:51;2.00;;;1.60;;
13891;SDS011;7016;48.172;8.058;2023-02-04T09:56:18;2.60;;;1.45;;
13891;SDS011;7016;48.172;8.058;2023-02-04T09:58:44;2.58;;;1.50;;
13891;SDS011;7016;48.172;8.058;2023-02-04T10:03:39;3.35;;;1.40;;
13891;SDS011;7016;48.172;8.058;2023-02-04T10:06:13;4.40;;;1.90;;
13891;SDS011;7016;48.172;8.058;2023-02-04T10:08:40;4.68;;;3.33;;
13891;SDS011;7016;48.172;8.058;2023-02-04T10:11:07;8.52;;;4.72;;
13891;SDS011;7016;48.172;8.058;2023-02-04T10:13:35;7.95;;;4.40;;
13891;SDS011;7016;48.172;8.058;2023-02-04T10:16:12;4.50;;;1.70;;
13891;SDS011;7016;48.172;8.058;2023-02-04T10:18:46;2.28;;;1.08;;
13891;SDS011;7016;48.172;8.058;2023-02-04T10:23:43;3.05;;;1.42;;
13891;SDS011;7016;48.172;8.058;2023-02-04T10:26:13;9.70;;;3.20;;
13891;SDS011;7016;48.172;8.058;2023-02-04T10:28:38;6.28;;;2.20;;
13891;SDS011;7016;48.172;8.058;2023-02-04T10:31:05;3.95;;;1.38;;
13891;SDS011;7016;48.172;8.058;2023-02-04T10:33:34;4.38;;;1.98;;
13891;SDS011;7016;48.172;8.058;2023-02-04T10:36:02;6.10;;;2.10;;
13891;SDS011;7016;48.172;8.058;2023-02-04T10:38:29;4.05;;;1.30;;
13891;SDS011;7016;48.172;8.058;2023-02-04T10:40:59;5.60;;;1.92;;
13891;SDS011;7016;48.172;8.058;2023-02-04T10:43:29;7.72;;;1.63;;
13891;SDS011;7016;48.172;8.058;2023-02-04T10:46:00;10.40;;;2.80;;
13891;SDS011;7016;48.172;8.058;2023-02-04T10:48:27;8.45;;;2.88;;
13891;SDS011;7016;48.172;8.058;2023-02-04T10:50:54;4.30;;;1.45;;
13891;SDS011;7016;48.172;8.058;2023-02-04T10:53:23;6.43;;;2.05;;
13891;SDS011;7016;48.172;8.058;2023-02-04T10:56:11;11.80;;;4.47;;
13891;SDS011;7016;48.172;8.058;2023-02-04T10:58:44;5.72;;;1.55;;
13891;SDS011;7016;48.172;8.058;2023-02-04T11:01:11;5.30;;;1.75;;
13891;SDS011;7016;48.172;8.058;2023-02-04T11:03:38;4.13;;;1.60;;
13891;SDS011;7016;48.172;8.058;2023-02-04T11:06:19;5.97;;;2.33;;
13891;SDS011;7016;48.172;8.058;2023-02-04T11:08:46;6.70;;;2.72;;
13891;SDS011;7016;48.172;8.058;2023-02-04T11:11:15;7.57;;;2.47;;
13891;SDS011;7016;48.172;8.058;2023-02-04T11:13:44;6.25;;;2.55;;
13891;SDS011;7016;48.172;8.058;2023-02-04T11:18:46;4.40;;;1.70;;
13891;SDS011;7016;48.172;8.058;2023-02-04T11:21:23;12.07;;;2.17;;
13891;SDS011;7016;48.172;8.058;2023-02-04T11:23:49;6.05;;;1.88;;
13891;SDS011;7016;48.172;8.058;2023-02-04T11:26:32;7.25;;;2.00;;
13891;SDS011;7016;48.172;8.058;2023-02-04T11:31:26;12.63;;;4.55;;
13891;SDS011;7016;48.172;8.058;2023-02-04T11:36:47;15.52;;;6.97;;
13891;SDS011;7016;48.172;8.058;2023-02-04T11:39:35;10.80;;;3.17;;
13891;SDS011;7016;48.172;8.058;2023-02-04T11:42:03;12.00;;;2.95;;
13891;SDS011;7016;48.172;8.058;2023-02-04T11:44:38;9.90;;;2.40;;
13891;SDS011;7016;48.172;8.058;2023-02-04T11:47:06;8.98;;;2.60;;
13891;SDS011;7016;48.172;8.058;2023-02-04T11:49:34;8.90;;;3.70;;
13891;SDS011;7016;48.172;8.058;2023-02-04T11:52:10;15.15;;;4.82;;
13891;SDS011;7016;48.172;8.058;2023-02-04T11:54:38;8.75;;;2.90;;
13891;SDS011;7016;48.172;8.058;2023-02-04T11:57:04;12.02;;;3.65;;
13891;SDS011;7016;48.172;8.058;2023-02-04T11:59:30;12.68;;;3.42;;
13891;SDS011;7016;48.172;8.058;2023-02-04T12:02:15;12.40;;;4.45;;
13891;SDS011;7016;48.172;8.058;2023-02-04T12:07:24;12.68;;;2.55;;
13891;SDS011;7016;48.172;8.058;2023-02-04T12:12:27;10.45;;;3.03;;
13891;SDS011;7016;48.172;8.058;2023-02-04T12:15:00;9.57;;;2.35;;
13891;SDS011;7016;48.172;8.058;2023-02-04T12:17:33;14.20;;;3.25;;
13891;SDS011;7016;48.172;8.058;2023-02-04T12:19:59;9.38;;;2.53;;
13891;SDS011;7016;48.172;8.058;2023-02-04T12:22:24;10.70;;;2.72;;
13891;SDS011;7016;48.172;8.058;2023-02-04T12:24:50;12.88;;;3.33;;
13891;SDS011;7016;48.172;8.058;2023-02-04T12:27:16;12.32;;;2.55;;
13891;SDS011;7016;48.172;8.058;2023-02-04T12:29:43;13.38;;;2.90;;
13891;SDS011;7016;48.172;8.058;2023-02-04T12:32:08;11.75;;;2.35;;
13891;SDS011;7016;48.172;8.058;2023-02-04T12:34:34;13.90;;;2.50;;
13891;SDS011;7016;48.172;8.058;2023-02-04T12:37:00;10.57;;;2.65;;
13891;SDS011;7016;48.172;8.058;2023-02-04T12:39:26;12.57;;;2.75;;
13891;SDS011;7016;48.172;8.058;2023-02-04T12:41:52;12.02;;;3.13;;
13891;SDS011;7016;48.172;8.058;2023-02-04T12:44:18;12.45;;;3.20;;
13891;SDS011;7016;48.172;8.058;2023-02-04T12:46:43;9.35;;;2.20;;
13891;SDS011;7016;48.172;8.058;2023-02-04T12:49:09;12.65;;;2.40;;
13891;SDS011;7016;48.172;8.058;2023-02-04T12:51:35;9.35;;;2.53;;
13891;SDS011;7016;48.172;8.058;2023-02-04T12:54:00;10.00;;;2.40;;
13891;SDS011;7016;48.172;8.058;2023-02-04T12:56:26;18.45;;;6.60;;
13891;SDS011;7016;48.172;8.058;2023-02-04T12:58:52;12.23;;;5.47;;
13891;SDS011;7016;48.172;8.058;2023-02-04T13:01:18;13.70;;;4.85;;
13891;SDS011;7016;48.172;8.058;2023-02-04T13:03:43;17.52;;;5.63;;
13891;SDS011;7016;48.172;8.058;2023-02-04T13:06:09;12.90;;;3.85;;
13891;SDS011;7016;48.172;8.058;2023-02-04T13:08:35;10.70;;;3.88;;
13891;SDS011;7016;48.172;8.058;2023-02-04T13:11:00;16.67;;;4.30;;
13891;SDS011;7016;48.172;8.058;2023-02-04T13:13:26;11.88;;;3.53;;
13891;SDS011;7016;48.172;8.058;2023-02-04T13:15:52;23.05;;;3.75;;
13891;SDS011;7016;48.172;8.058;2023-02-04T13:18:17;16.80;;;3.20;;
13891;SDS011;7016;48.172;8.058;2023-02-04T13:20:44;8.77;;;2.67;;
13891;SDS011;7016;48.172;8.058;2023-02-04T13:23:10;13.30;;;3.40;;
13891;SDS011;7016;48.172;8.058;2023-02-04T13:25:35;14.23;;;3.45;;
13891;SDS011;7016;48.172;8.058;2023-02-04T13:28:01;12.48;;;3.00;;
13891;SDS011;7016;48.172;8.058;2023-02-04T13:30:27;13.75;;;3.45;;
13891;SDS011;7016;48.172;8.058;2023-02-04T13:32:53;12.73;;;3.10;;
13891;SDS011;7016;48.172;8.058;2023-02-04T13:35:18;13.52;;;3.47;;
13891;SDS011;7016;48.172;8.058;2023-02-04T13:37:54;10.60;;;2.70;;
13891;SDS011;7016;48.172;8.058;2023-02-04T13:42:54;13.10;;;4.03;;
13891;SDS011;7016;48.172;8.058;2023-02-04T13:45:20;14.60;;;3.33;;
13891;SDS011;7016;48.172;8.058;2023-02-04T13:47:46;12.52;;;3.65;;
13891;SDS011;7016;48.172;8.058;2023-02-04T13:50:13;14.75;;;3.85;;
13891;SDS011;7016;48.172;8.058;2023-02-04T13:52:43;17.33;;;3.40;;
13891;SDS011;7016;48.172;8.058;2023-02-04T13:55:09;12.68;;;3.42;;
13891;SDS011;7016;48.172;8.058;2023-02-04T13:57:34;12.32;;;2.97;;
13891;SDS011;7016;48.172;8.058;2023-02-04T14:00:02;13.48;;;3.45;;
13891;SDS011;7016;48.172;8.058;2023-02-04T14:02:29;18.75;;;3.92;;
13891;SDS011;7016;48.172;8.058;2023-02-04T14:04:54;17.50;;;5.07;;
13891;SDS011;7016;48.172;8.058;2023-02-04T14:07:24;16.23;;;4.10;;
13891;SDS011;7016;48.172;8.058;2023-02-04T14:09:50;13.65;;;3.58;;
13891;SDS011;7016;48.172;8.058;2023-02-04T14:12:16;12.63;;;3.45;;
13891;SDS011;7016;48.172;8.058;2023-02-04T14:14:41;13.43;;;3.20;;
13891;SDS011;7016;48.172;8.058;2023-02-04T14:17:07;12.27;;;3.50;;
13891;SDS011;7016;48.172;8.058;2023-02-04T14:19:33;19.35;;;4.10;;
13891;SDS011;7016;48.172;8.058;2023-02-04T14:21:58;10.13;;;3.00;;
13891;SDS011;7016;48.172;8.058;2023-02-04T14:24:24;21.05;;;3.92;;
13891;SDS011;7016;48.172;8.058;2023-02-04T14:26:50;13.73;;;3.53;;
13891;SDS011;7016;48.172;8.058;2023-02-04T14:29:16;12.57;;;3.80;;
13891;SDS011;7016;48.172;8.058;2023-02-04T14:31:41;16.90;;;3.38;;
13891;SDS011;7016;48.172;8.058;2023-02-04T14:34:07;13.65;;;3.67;;
13891;SDS011;7016;48.172;8.058;2023-02-04T14:36:33;14.30;;;4.25;;
13891;SDS011;7016;48.172;8.058;2023-02-04T14:38:58;15.48;;;4.20;;
13891;SDS011;7016;48.172;8.058;2023-02-04T14:41:24;15.38;;;3.60;;
13891;SDS011;7016;48.172;8.058;2023-02-04T14:43:50;10.85;;;3.67;;
13891;SDS011;7016;48.172;8.058;2023-02-04T14:46:17;14.23;;;4.13;;
13891;SDS011;7016;48.172;8.058;2023-02-04T14:48:43;14.52;;;3.65;;
13891;SDS011;7016;48.172;8.058;2023-02-04T14:51:10;12.30;;;3.45;;
13891;SDS011;7016;48.172;8.058;2023-02-04T14:53:36;14.93;;;3.80;;
13891;SDS011;7016;48.172;8.058;2023-02-04T14:56:01;12.48;;;3.63;;
13891;SDS011;7016;48.172;8.058;2023-02-04T14:58:27;20.40;;;7.05;;
13891;SDS011;7016;48.172;8.058;2023-02-04T15:00:53;15.27;;;4.80;;
13891;SDS011;7016;48.172;8.058;2023-02-04T15:03:19;11.52;;;3.53;;
13891;SDS011;7016;48.172;8.058;2023-02-04T15:05:45;15.80;;;3.20;;
13891;SDS011;7016;48.172;8.058;2023-02-04T15:08:10;12.00;;;3.53;;
13891;SDS011;7016;48.172;8.058;2023-02-04T15:10:36;13.18;;;3.80;;
13891;SDS011;7016;48.172;8.058;2023-02-04T15:13:02;16.95;;;5.43;;
13891;SDS011;7016;48.172;8.058;2023-02-04T15:15:28;11.63;;;3.40;;
13891;SDS011;7016;48.172;8.058;2023-02-04T15:17:53;11.32;;;3.35;;
13891;SDS011;7016;48.172;8.058;2023-02-04T15:20:19;13.90;;;3.67;;